createdAt,value
2018-09-21T00:00:08.919Z,81.93
2018-09-21T00:01:08.912Z,81.54
2018-09-21T00:02:08.929Z,81.73
2018-09-21T00:03:08.911Z,81.39
2018-09-21T00:04:08.914Z,81.68
2018-09-21T00:05:08.919Z,81.20
2018-09-21T00:06:08.949Z,81.29
2018-09-21T00:07:08.926Z,81.48
2018-09-21T00:08:08.927Z,81.20
2018-09-21T00:09:08.945Z,81.39
2018-09-21T00:10:08.939Z,81.20
2018-09-21T00:11:08.940Z,81.10
2018-09-21T00:12:08.946Z,81.39
2018-09-21T00:13:08.948Z,81.01
2018-09-21T00:14:08.965Z,81.20
2018-09-21T00:15:08.972Z,81.10
2018-09-21T00:16:08.959Z,81.39
2018-09-21T00:17:08.974Z,81.20
2018-09-21T00:18:08.978Z,80.81
2018-09-21T00:19:08.984Z,81.29
2018-09-21T00:20:08.984Z,81.10
2018-09-21T00:21:08.992Z,81.58
2018-09-21T00:22:08.984Z,81.29
2018-09-21T00:23:09.190Z,81.29
2018-09-21T00:24:09.008Z,81.39
2018-09-21T00:25:08.996Z,81.77
2018-09-21T00:26:09.002Z,81.93
2018-09-21T00:27:09.000Z,81.77
2018-09-21T00:28:09.019Z,81.63
2018-09-21T00:29:09.021Z,82.02
2018-09-21T00:30:09.031Z,81.83
2018-09-21T00:31:09.021Z,81.54
2018-09-21T00:32:09.044Z,81.87
2018-09-21T00:33:09.025Z,82.06
2018-09-21T00:34:09.043Z,81.54
2018-09-21T00:35:09.033Z,81.58
2018-09-21T00:36:09.051Z,81.73
2018-09-21T00:37:09.039Z,81.54
2018-09-21T00:38:09.054Z,81.73
2018-09-21T00:39:09.049Z,81.77
2018-09-21T00:40:09.065Z,81.54
2018-09-21T00:41:09.067Z,81.77
2018-09-21T00:42:09.057Z,81.58
2018-09-21T00:43:09.072Z,81.68
2018-09-21T00:44:09.066Z,81.77
2018-09-21T00:45:09.083Z,81.58
2018-09-21T00:46:09.076Z,81.77
2018-09-21T00:47:09.081Z,81.58
2018-09-21T00:48:09.081Z,81.25
2018-09-21T00:49:09.085Z,81.39
2018-09-21T00:50:09.106Z,81.29
2018-09-21T00:51:09.095Z,81.39
2018-09-21T00:52:09.106Z,81.48
2018-09-21T00:53:09.303Z,81.29
2018-09-21T00:54:09.107Z,80.91
2018-09-21T00:55:09.137Z,81.01
2018-09-21T00:56:09.316Z,81.39
2018-09-21T00:57:09.135Z,81.10
2018-09-21T00:58:09.131Z,81.01
2018-09-21T00:59:09.124Z,80.91
2018-09-21T01:00:09.140Z,81.20
2018-09-21T01:01:09.143Z,81.10
2018-09-21T01:02:09.149Z,81.58
2018-09-21T01:03:09.166Z,81.39
2018-09-21T01:04:09.141Z,81.39
2018-09-21T01:05:09.148Z,81.39
2018-09-21T01:06:09.167Z,81.29
2018-09-21T01:07:09.154Z,81.68
2018-09-21T01:08:09.189Z,81.39
2018-09-21T01:09:09.187Z,81.58
2018-09-21T01:10:09.172Z,81.68
2018-09-21T01:11:09.184Z,82.26
2018-09-21T01:12:09.194Z,81.58
2018-09-21T01:13:09.193Z,81.48
2018-09-21T01:14:09.396Z,81.77
2018-09-21T01:15:09.196Z,81.96
2018-09-21T01:16:09.198Z,82.06
2018-09-21T01:17:09.191Z,81.68
2018-09-21T01:18:09.207Z,81.96
2018-09-21T01:19:09.426Z,82.26
2018-09-21T01:20:09.219Z,82.26
2018-09-21T01:21:09.216Z,82.26
2018-09-21T01:22:09.210Z,82.54
2018-09-21T01:23:09.223Z,82.93
2018-09-21T01:24:09.226Z,82.45
2018-09-21T01:25:09.233Z,82.45
2018-09-21T01:26:09.243Z,82.35
2018-09-21T01:27:09.231Z,82.45
2018-09-21T01:28:09.233Z,83.03
2018-09-21T01:29:09.236Z,82.89
2018-09-21T01:30:09.255Z,83.31
2018-09-21T01:31:09.246Z,82.98
2018-09-21T01:32:09.248Z,82.89
2018-09-21T01:33:09.253Z,83.31
2018-09-21T01:34:09.258Z,82.93
2018-09-21T01:35:09.272Z,82.70
2018-09-21T01:36:09.265Z,83.37
2018-09-21T01:37:09.268Z,82.54
2018-09-21T01:38:09.283Z,82.83
2018-09-21T01:39:09.277Z,82.41
2018-09-21T01:40:09.290Z,82.79
2018-09-21T01:41:09.299Z,82.89
2018-09-21T01:42:09.287Z,83.28
2018-09-21T01:43:09.305Z,83.28
2018-09-21T01:44:09.293Z,82.79
2018-09-21T01:45:09.298Z,83.18
2018-09-21T01:46:09.301Z,83.37
2018-09-21T01:47:09.303Z,82.98
2018-09-21T01:48:09.308Z,83.28
2018-09-21T01:49:09.323Z,83.28
2018-09-21T01:50:09.317Z,83.56
2018-09-21T01:51:09.332Z,83.37
2018-09-21T01:52:09.332Z,83.99
2018-09-21T01:53:09.341Z,84.14
2018-09-21T01:54:09.338Z,83.95
2018-09-21T01:55:09.347Z,84.14
2018-09-21T01:56:09.340Z,83.28
2018-09-21T01:57:09.343Z,83.95
2018-09-21T01:58:09.349Z,83.95
2018-09-21T01:59:09.349Z,83.66
2018-09-21T02:00:09.354Z,83.75
2018-09-21T02:01:09.359Z,83.95
2018-09-21T02:02:09.386Z,83.75
2018-09-21T02:03:09.367Z,83.95
2018-09-21T02:04:09.368Z,84.62
2018-09-21T02:05:09.373Z,83.95
2018-09-21T02:06:09.382Z,84.43
2018-09-21T02:07:09.380Z,84.72
2018-09-21T02:08:09.385Z,84.33
2018-09-21T02:09:09.388Z,84.72
2018-09-21T02:10:09.392Z,85.00
2018-09-21T02:11:09.398Z,84.33
2018-09-21T02:12:09.414Z,84.81
2018-09-21T02:13:09.413Z,85.10
2018-09-21T02:14:09.419Z,84.72
2018-09-21T02:15:09.423Z,84.81
2018-09-21T02:16:09.419Z,84.72
2018-09-21T02:17:09.421Z,84.43
2018-09-21T02:18:09.443Z,85.30
2018-09-21T02:19:09.426Z,85.00
2018-09-21T02:20:09.434Z,84.81
2018-09-21T02:21:09.435Z,84.72
2018-09-21T02:22:09.441Z,85.30
2018-09-21T02:23:09.445Z,85.39
2018-09-21T02:24:09.446Z,85.20
2018-09-21T02:25:09.462Z,85.49
2018-09-21T02:26:09.656Z,85.20
2018-09-21T02:27:09.459Z,84.91
2018-09-21T02:28:09.460Z,85.00
2018-09-21T02:29:09.467Z,85.20
2018-09-21T02:30:09.474Z,85.30
2018-09-21T02:31:09.475Z,85.49
2018-09-21T02:32:09.492Z,85.68
2018-09-21T02:33:09.495Z,85.20
2018-09-21T02:34:09.689Z,85.39
2018-09-21T02:35:09.501Z,85.30
2018-09-21T02:36:09.497Z,85.20
2018-09-21T02:37:09.500Z,85.30
2018-09-21T02:38:09.505Z,85.00
2018-09-21T02:39:09.528Z,85.00
2018-09-21T02:40:09.737Z,84.62
2018-09-21T02:41:09.515Z,85.00
2018-09-21T02:42:09.517Z,85.10
2018-09-21T02:43:09.531Z,84.81
2018-09-21T02:44:09.528Z,85.00
2018-09-21T02:45:09.543Z,84.62
2018-09-21T02:46:09.547Z,85.00
2018-09-21T02:47:09.738Z,84.72
2018-09-21T02:48:09.758Z,85.00
2018-09-21T02:49:09.760Z,85.00
2018-09-21T02:50:09.547Z,84.81
2018-09-21T02:51:09.552Z,85.39
2018-09-21T02:52:09.582Z,84.72
2018-09-21T02:53:09.765Z,84.62
2018-09-21T02:54:09.591Z,84.91
2018-09-21T02:55:09.579Z,84.72
2018-09-21T02:56:09.576Z,85.20
2018-09-21T02:57:09.781Z,84.23
2018-09-21T02:58:09.582Z,84.62
2018-09-21T02:59:09.584Z,84.72
2018-09-21T03:00:09.601Z,84.53
2018-09-21T03:01:09.594Z,84.91
2018-09-21T03:02:09.616Z,84.33
2018-09-21T03:03:09.604Z,84.33
2018-09-21T03:04:09.608Z,84.14
2018-09-21T03:05:09.637Z,84.62
2018-09-21T03:06:09.628Z,84.53
2018-09-21T03:07:09.660Z,83.89
2018-09-21T03:08:09.635Z,83.95
2018-09-21T03:09:09.623Z,84.18
2018-09-21T03:10:09.656Z,83.75
2018-09-21T03:11:09.629Z,83.89
2018-09-21T03:12:09.846Z,83.99
2018-09-21T03:13:09.927Z,83.75
2018-09-21T03:14:09.659Z,83.31
2018-09-21T03:15:09.672Z,84.09
2018-09-21T03:16:09.649Z,83.99
2018-09-21T03:17:09.856Z,83.89
2018-09-21T03:18:09.668Z,83.95
2018-09-21T03:19:09.874Z,84.09
2018-09-21T03:20:09.870Z,83.56
2018-09-21T03:21:09.677Z,83.41
2018-09-21T03:22:09.673Z,83.70
2018-09-21T03:23:09.878Z,84.18
2018-09-21T03:24:09.886Z,83.61
2018-09-21T03:25:09.685Z,83.31
2018-09-21T03:26:09.699Z,83.99
2018-09-21T03:27:09.904Z,83.80
2018-09-21T03:28:09.696Z,83.89
2018-09-21T03:29:09.698Z,83.70
2018-09-21T03:30:09.715Z,83.80
2018-09-21T03:31:09.715Z,83.66
2018-09-21T03:32:09.713Z,83.61
2018-09-21T03:33:09.715Z,83.47
2018-09-21T03:34:09.935Z,83.51
2018-09-21T03:35:09.799Z,83.41
2018-09-21T03:36:09.739Z,83.03
2018-09-21T03:37:09.736Z,82.93
2018-09-21T03:38:09.763Z,83.51
2018-09-21T03:39:09.747Z,83.31
2018-09-21T03:40:09.956Z,83.37
2018-09-21T03:41:09.776Z,83.22
2018-09-21T03:42:09.953Z,83.03
2018-09-21T03:43:09.768Z,83.03
2018-09-21T03:44:09.979Z,82.45
2018-09-21T03:45:09.962Z,82.64
2018-09-21T03:46:09.762Z,82.93
2018-09-21T03:47:09.989Z,82.74
2018-09-21T03:48:09.780Z,82.45
2018-09-21T03:49:09.994Z,82.74
2018-09-21T03:50:09.780Z,82.93
2018-09-21T03:51:09.812Z,82.64
2018-09-21T03:52:09.812Z,83.03
2018-09-21T03:53:10.016Z,82.93
2018-09-21T03:54:09.806Z,82.45
2018-09-21T03:55:09.821Z,82.26
2018-09-21T03:56:09.802Z,82.26
2018-09-21T03:57:09.829Z,82.64
2018-09-21T03:58:09.818Z,82.64
2018-09-21T03:59:09.824Z,82.64
2018-09-21T04:00:10.028Z,82.16
2018-09-21T04:01:09.951Z,82.45
2018-09-21T04:02:09.853Z,82.93
2018-09-21T04:03:10.039Z,82.35
2018-09-21T04:04:10.044Z,82.26
2018-09-21T04:05:10.043Z,82.45
2018-09-21T04:06:09.863Z,82.54
2018-09-21T04:07:09.843Z,82.54
2018-09-21T04:08:09.857Z,82.64
2018-09-21T04:09:10.070Z,82.26
2018-09-21T04:10:09.871Z,82.35
2018-09-21T04:11:09.877Z,81.77
2018-09-21T04:12:09.866Z,81.58
2018-09-21T04:13:09.956Z,81.58
2018-09-21T04:14:09.873Z,81.58
2018-09-21T04:15:09.876Z,81.68
2018-09-21T04:16:09.882Z,81.77
2018-09-21T04:17:09.880Z,81.20
2018-09-21T04:18:09.890Z,81.01
2018-09-21T04:19:09.888Z,81.39
2018-09-21T04:20:09.892Z,81.24
2018-09-21T04:21:09.899Z,80.85
2018-09-21T04:22:09.902Z,80.76
2018-09-21T04:23:09.947Z,80.56
2018-09-21T04:24:09.906Z,80.66
2018-09-21T04:25:09.912Z,80.46
2018-09-21T04:26:09.916Z,81.04
2018-09-21T04:27:09.925Z,80.27
2018-09-21T04:28:09.930Z,79.79
2018-09-21T04:29:10.135Z,79.79
2018-09-21T04:30:09.934Z,80.18
2018-09-21T04:31:09.936Z,80.46
2018-09-21T04:32:09.947Z,80.56
2018-09-21T04:33:09.943Z,80.56
2018-09-21T04:34:09.949Z,80.56
2018-09-21T04:35:09.948Z,80.66
2018-09-21T04:36:09.974Z,80.56
2018-09-21T04:37:09.966Z,81.33
2018-09-21T04:38:10.165Z,81.14
2018-09-21T04:39:09.977Z,81.43
2018-09-21T04:40:09.968Z,81.72
2018-09-21T04:41:09.982Z,81.39
2018-09-21T04:42:09.977Z,81.81
2018-09-21T04:43:10.191Z,81.91
2018-09-21T04:44:09.992Z,81.68
2018-09-21T04:45:09.988Z,81.52
2018-09-21T04:46:10.010Z,81.96
2018-09-21T04:47:09.997Z,82.26
2018-09-21T04:48:10.022Z,81.77
2018-09-21T04:49:10.019Z,82.26
2018-09-21T04:50:10.008Z,82.16
2018-09-21T04:51:10.011Z,81.87
2018-09-21T04:52:10.016Z,81.77
2018-09-21T04:53:10.024Z,81.96
2018-09-21T04:54:10.023Z,81.68
2018-09-21T04:55:10.030Z,82.06
2018-09-21T04:56:10.031Z,81.68
2018-09-21T04:57:10.037Z,82.10
2018-09-21T04:58:10.036Z,81.87
2018-09-21T04:59:10.042Z,82.06
2018-09-21T05:00:10.054Z,82.26
2018-09-21T05:01:10.074Z,81.58
2018-09-21T05:02:10.260Z,81.48
2018-09-21T05:03:10.059Z,82.16
2018-09-21T05:04:10.073Z,82.29
2018-09-21T05:05:10.268Z,82.54
2018-09-21T05:06:10.069Z,82.39
2018-09-21T05:07:10.083Z,82.45
2018-09-21T05:08:10.078Z,82.54
2018-09-21T05:09:10.097Z,82.54
2018-09-21T05:10:10.089Z,82.54
2018-09-21T05:11:10.292Z,82.29
2018-09-21T05:12:10.107Z,82.49
2018-09-21T05:13:10.310Z,82.26
2018-09-21T05:14:10.104Z,82.78
2018-09-21T05:15:10.107Z,82.39
2018-09-21T05:16:10.324Z,82.59
2018-09-21T05:17:10.114Z,82.93
2018-09-21T05:18:10.122Z,82.49
2018-09-21T05:19:10.122Z,82.68
2018-09-21T05:20:10.130Z,82.26
2018-09-21T05:21:10.143Z,82.78
2018-09-21T05:22:10.149Z,82.74
2018-09-21T05:23:10.138Z,82.87
2018-09-21T05:24:10.140Z,83.03
2018-09-21T05:25:10.146Z,82.35
2018-09-21T05:26:10.150Z,82.74
2018-09-21T05:27:10.163Z,83.12
2018-09-21T05:28:10.159Z,83.12
2018-09-21T05:29:10.177Z,82.83
2018-09-21T05:30:10.167Z,82.78
2018-09-21T05:31:10.169Z,83.26
2018-09-21T05:32:10.196Z,83.16
2018-09-21T05:33:10.189Z,83.41
2018-09-21T05:34:10.437Z,83.61
2018-09-21T05:35:10.280Z,83.70
2018-09-21T05:36:10.202Z,83.26
2018-09-21T05:37:10.195Z,83.80
2018-09-21T05:38:10.210Z,84.12
2018-09-21T05:39:10.402Z,83.99
2018-09-21T05:40:10.420Z,83.31
2018-09-21T05:41:10.412Z,83.80
2018-09-21T05:42:10.438Z,83.99
2018-09-21T05:43:10.229Z,84.28
2018-09-21T05:44:10.223Z,83.94
2018-09-21T05:45:10.247Z,84.66
2018-09-21T05:46:10.241Z,84.56
2018-09-21T05:47:10.513Z,84.66
2018-09-21T05:48:10.247Z,84.56
2018-09-21T05:49:10.244Z,84.95
2018-09-21T05:50:10.251Z,84.38
2018-09-21T05:51:10.463Z,85.05
2018-09-21T05:52:10.264Z,85.43
2018-09-21T05:53:10.257Z,85.14
2018-09-21T05:54:10.264Z,84.86
2018-09-21T05:55:10.267Z,84.56
2018-09-21T05:56:10.341Z,85.05
2018-09-21T05:57:10.289Z,85.28
2018-09-21T05:58:10.496Z,85.38
2018-09-21T05:59:10.284Z,85.24
2018-09-21T06:00:10.491Z,85.91
2018-09-21T06:01:10.302Z,85.82
2018-09-21T06:02:10.517Z,85.72
2018-09-21T06:03:10.301Z,85.96
2018-09-21T06:04:10.312Z,86.05
2018-09-21T06:05:10.313Z,86.01
2018-09-21T06:06:10.313Z,85.86
2018-09-21T06:07:10.318Z,86.05
2018-09-21T06:08:10.322Z,85.96
2018-09-21T06:09:10.325Z,86.15
2018-09-21T06:10:10.529Z,86.73
2018-09-21T06:11:10.333Z,86.05
2018-09-21T06:12:10.336Z,86.25
2018-09-21T06:13:10.541Z,86.15
2018-09-21T06:14:10.367Z,85.86
2018-09-21T06:15:10.348Z,86.82
2018-09-21T06:16:10.355Z,86.44
2018-09-21T06:17:10.559Z,85.96
2018-09-21T06:18:10.365Z,86.15
2018-09-21T06:19:10.372Z,85.86
2018-09-21T06:20:12.941Z,86.15
2018-09-21T06:21:10.429Z,85.96
2018-09-21T06:22:10.379Z,86.44
2018-09-21T06:23:10.586Z,86.44
2018-09-21T06:24:10.386Z,86.35
2018-09-21T06:25:10.392Z,86.35
2018-09-21T06:26:10.615Z,86.82
2018-09-21T06:27:10.603Z,86.15
2018-09-21T06:28:10.418Z,86.35
2018-09-21T06:29:10.409Z,86.63
2018-09-21T06:30:10.413Z,86.15
2018-09-21T06:31:10.415Z,86.05
2018-09-21T06:32:10.424Z,85.86
2018-09-21T06:33:10.638Z,85.86
2018-09-21T06:34:10.451Z,85.47
2018-09-21T06:35:10.633Z,85.38
2018-09-21T06:36:10.438Z,85.28
2018-09-21T06:37:10.442Z,85.67
2018-09-21T06:38:10.447Z,86.35
2018-09-21T06:39:10.652Z,86.05
2018-09-21T06:40:10.455Z,86.05
2018-09-21T06:41:10.508Z,86.25
2018-09-21T06:42:10.475Z,86.35
2018-09-21T06:43:10.481Z,85.67
2018-09-21T06:44:10.469Z,85.86
2018-09-21T06:45:10.677Z,85.96
2018-09-21T06:46:10.480Z,85.77
2018-09-21T06:47:10.485Z,85.77
2018-09-21T06:48:10.488Z,85.38
2018-09-21T06:49:10.697Z,85.38
2018-09-21T06:50:10.499Z,85.47
2018-09-21T06:51:10.705Z,85.47
2018-09-21T06:52:10.705Z,85.38
2018-09-21T06:53:10.520Z,85.28
2018-09-21T06:54:10.541Z,84.90
2018-09-21T06:55:10.517Z,84.70
2018-09-21T06:56:10.540Z,84.32
2018-09-21T06:57:10.525Z,84.61
2018-09-21T06:58:10.540Z,84.70
2018-09-21T06:59:10.534Z,85.28
2018-09-21T07:00:10.540Z,84.61
2018-09-21T07:01:10.558Z,85.19
2018-09-21T07:02:10.748Z,85.28
2018-09-21T07:03:10.565Z,85.57
2018-09-21T07:04:10.554Z,84.90
2018-09-21T07:05:10.576Z,85.09
2018-09-21T07:06:10.566Z,85.28
2018-09-21T07:07:10.570Z,84.61
2018-09-21T07:08:10.600Z,84.61
2018-09-21T07:09:10.600Z,84.61
2018-09-21T07:10:10.598Z,84.42
2018-09-21T07:11:10.593Z,84.03
2018-09-21T07:12:10.594Z,84.12
2018-09-21T07:13:10.633Z,84.70
2018-09-21T07:14:10.608Z,83.55
2018-09-21T07:15:10.803Z,82.87
2018-09-21T07:16:10.605Z,82.97
2018-09-21T07:17:10.624Z,82.78
2018-09-21T07:18:10.620Z,82.49
2018-09-21T07:19:10.621Z,82.78
2018-09-21T07:20:10.624Z,82.87
2018-09-21T07:21:10.665Z,82.39
2018-09-21T07:22:10.633Z,82.68
2018-09-21T07:23:10.640Z,79.50
2018-09-21T07:24:10.712Z,78.92
2018-09-21T07:25:10.647Z,78.83
2018-09-21T07:26:10.667Z,78.25
2018-09-21T07:27:10.659Z,78.44
2018-09-21T07:28:10.684Z,77.96
2018-09-21T07:29:10.665Z,78.06
2018-09-21T07:30:10.674Z,77.58
2018-09-21T07:31:10.696Z,80.56
2018-09-21T07:32:10.679Z,79.21
2018-09-21T07:33:10.684Z,79.31
2018-09-21T07:34:10.686Z,78.44
2018-09-21T07:35:10.702Z,78.06
2018-09-21T07:36:10.722Z,78.15
2018-09-21T07:37:10.699Z,77.96
2018-09-21T07:38:10.706Z,77.38
2018-09-21T07:39:10.705Z,77.67
2018-09-21T07:40:10.713Z,78.25
2018-09-21T07:41:10.719Z,76.90
2018-09-21T07:42:10.726Z,77.67
2018-09-21T07:43:10.737Z,76.42
2018-09-21T07:44:10.742Z,76.32
2018-09-21T07:45:10.745Z,75.78
2018-09-21T07:46:10.740Z,76.61
2018-09-21T07:47:10.756Z,77.19
2018-09-21T07:48:10.749Z,76.93
2018-09-21T07:49:10.766Z,77.00
2018-09-21T07:50:10.764Z,77.09
2018-09-21T07:51:10.767Z,78.58
2018-09-21T07:52:10.765Z,78.92
2018-09-21T07:53:10.778Z,79.41
2018-09-21T07:54:10.789Z,79.69
2018-09-21T07:55:10.788Z,82.78
2018-09-21T07:56:10.780Z,80.85
2018-09-21T07:57:10.795Z,83.16
2018-09-21T07:58:10.788Z,81.81
2018-09-21T07:59:10.794Z,81.62
2018-09-21T08:00:10.819Z,81.81
2018-09-21T08:01:10.802Z,82.01
2018-09-21T08:02:11.023Z,81.14
2018-09-21T08:03:10.822Z,82.29
2018-09-21T08:04:10.823Z,81.52
2018-09-21T08:05:11.076Z,79.41
2018-09-21T08:06:10.828Z,79.60
2018-09-21T08:07:10.875Z,79.11
2018-09-21T08:08:11.044Z,78.06
2018-09-21T08:09:11.057Z,79.21
2018-09-21T08:10:10.840Z,79.21
2018-09-21T08:11:11.044Z,78.92
2018-09-21T08:12:10.860Z,79.41
2018-09-21T08:13:10.852Z,78.83
2018-09-21T08:14:10.867Z,78.25
2018-09-21T08:15:10.887Z,78.44
2018-09-21T08:16:11.082Z,78.44
2018-09-21T08:17:10.870Z,78.63
2018-09-21T08:18:10.875Z,78.83
2018-09-21T08:19:11.089Z,79.11
2018-09-21T08:20:11.084Z,79.02
2018-09-21T08:21:11.103Z,78.44
2018-09-21T08:22:10.889Z,78.44
2018-09-21T08:23:10.902Z,79.41
2018-09-21T08:24:10.897Z,79.31
2018-09-21T08:25:11.155Z,80.18
2018-09-21T08:26:10.905Z,79.41
2018-09-21T08:27:10.919Z,78.83
2018-09-21T08:28:10.925Z,78.44
2018-09-21T08:29:10.919Z,78.44
2018-09-21T08:30:11.142Z,79.11
2018-09-21T08:31:10.953Z,78.63
2018-09-21T08:32:11.142Z,80.85
2018-09-21T08:33:11.184Z,86.82
2018-09-21T08:34:11.152Z,88.85
2018-09-21T08:35:10.960Z,93.48
2018-09-21T08:36:10.962Z,96.22
2018-09-21T08:37:11.133Z,99.21
2018-09-21T08:38:10.969Z,99.99
2018-09-21T08:39:10.960Z,99.99
2018-09-21T08:40:10.962Z,99.99
2018-09-21T08:41:10.968Z,99.99
2018-09-21T08:42:10.988Z,99.99
2018-09-21T08:43:11.191Z,99.99
2018-09-21T08:44:10.980Z,99.99
2018-09-21T08:45:10.982Z,99.99
2018-09-21T08:46:11.216Z,99.99
2018-09-21T08:47:11.011Z,99.99
2018-09-21T08:48:11.200Z,99.99
2018-09-21T08:49:11.001Z,99.99
2018-09-21T08:50:11.008Z,99.99
2018-09-21T08:51:11.007Z,99.99
2018-09-21T08:52:11.008Z,99.99
2018-09-21T08:53:11.012Z,99.99
2018-09-21T08:54:11.016Z,99.99
2018-09-21T08:55:11.044Z,99.99
2018-09-21T08:56:11.022Z,99.99
2018-09-21T08:57:11.035Z,99.99
2018-09-21T08:58:11.039Z,99.99
2018-09-21T08:59:11.252Z,99.99
2018-09-21T09:00:11.062Z,99.99
2018-09-21T09:01:11.235Z,99.99
2018-09-21T09:02:11.050Z,99.99
2018-09-21T09:03:11.327Z,99.99
2018-09-21T09:04:11.253Z,99.99
2018-09-21T09:05:11.074Z,99.99
2018-09-21T09:06:11.065Z,99.99
2018-09-21T09:07:11.060Z,99.99
2018-09-21T09:08:11.059Z,99.99
2018-09-21T09:09:11.064Z,99.99
2018-09-21T09:10:11.051Z,99.99
2018-09-21T09:11:11.254Z,99.99
2018-09-21T09:12:11.053Z,99.99
2018-09-21T09:13:11.074Z,99.99
2018-09-21T09:14:11.261Z,99.99
2018-09-21T09:15:11.264Z,99.99
2018-09-21T09:16:11.056Z,99.99
2018-09-21T09:17:11.063Z,99.99
2018-09-21T09:18:11.275Z,99.99
2018-09-21T09:19:11.060Z,99.99
2018-09-21T09:20:11.077Z,99.99
2018-09-21T09:21:11.070Z,99.99
2018-09-21T09:22:11.073Z,99.99
2018-09-21T09:23:11.075Z,99.99
2018-09-21T09:24:11.267Z,99.99
2018-09-21T09:25:11.076Z,99.99
2018-09-21T09:26:11.072Z,99.99
2018-09-21T09:27:11.061Z,99.99
2018-09-21T09:28:11.072Z,99.99
2018-09-21T09:29:11.277Z,99.99
2018-09-21T09:30:11.301Z,99.99
2018-09-21T09:31:11.281Z,99.99
2018-09-21T09:32:11.078Z,99.99
2018-09-21T09:33:11.064Z,99.99
2018-09-21T09:34:11.065Z,99.99
2018-09-21T09:35:11.066Z,99.99
2018-09-21T09:36:11.077Z,99.99
2018-09-21T09:37:11.068Z,99.99
2018-09-21T09:38:11.284Z,99.99
2018-09-21T09:39:11.070Z,99.99
2018-09-21T09:40:11.067Z,99.99
2018-09-21T09:41:11.069Z,99.99
2018-09-21T09:42:11.273Z,99.99
2018-09-21T09:43:11.080Z,99.99
2018-09-21T09:44:11.068Z,99.99
2018-09-21T09:45:11.274Z,99.99
2018-09-21T09:46:11.273Z,99.99
2018-09-21T09:47:11.070Z,99.99
2018-09-21T09:48:11.076Z,99.99
2018-09-21T09:49:11.096Z,99.99
2018-09-21T09:50:11.085Z,99.99
2018-09-21T09:51:11.091Z,99.99
2018-09-21T09:52:11.072Z,99.99
2018-09-21T09:53:11.073Z,99.99
2018-09-21T09:54:11.276Z,99.99
2018-09-21T09:55:11.091Z,99.99
2018-09-21T09:56:11.073Z,99.99
2018-09-21T09:57:11.104Z,99.99
2018-09-21T09:58:11.289Z,99.99
2018-09-21T09:59:11.277Z,99.99
2018-09-21T10:00:11.093Z,99.99
2018-09-21T10:01:11.080Z,99.99
2018-09-21T10:02:11.090Z,99.99
2018-09-21T10:03:11.088Z,99.99
2018-09-21T10:04:11.090Z,99.99
2018-09-21T10:05:11.084Z,99.99
2018-09-21T10:06:11.105Z,99.99
2018-09-21T10:07:11.085Z,99.99
2018-09-21T10:08:11.083Z,99.99
2018-09-21T10:09:11.087Z,99.99
2018-09-21T10:10:11.150Z,99.99
2018-09-21T10:11:11.094Z,99.99
2018-09-21T10:12:11.103Z,99.99
2018-09-21T10:13:11.086Z,99.99
2018-09-21T10:14:11.089Z,99.99
2018-09-21T10:15:11.086Z,99.99
2018-09-21T10:16:11.299Z,99.99
2018-09-21T10:17:11.103Z,99.99
2018-09-21T10:18:11.103Z,99.99
2018-09-21T10:19:11.089Z,99.99
2018-09-21T10:20:11.091Z,99.99
2018-09-21T10:21:11.106Z,99.99
2018-09-21T10:22:11.094Z,99.99
2018-09-21T10:23:11.318Z,99.99
2018-09-21T10:24:11.186Z,99.99
2018-09-21T10:25:11.311Z,99.99
2018-09-21T10:26:11.314Z,99.99
2018-09-21T10:27:11.219Z,99.99
2018-09-21T10:28:11.176Z,99.99
2018-09-21T10:29:11.136Z,99.99
2018-09-21T10:30:11.102Z,99.99
2018-09-21T10:31:11.114Z,99.99
2018-09-21T10:32:11.126Z,99.99
2018-09-21T10:33:11.185Z,99.99
2018-09-21T10:34:11.127Z,99.99
2018-09-21T10:35:11.106Z,99.99
2018-09-21T10:36:11.112Z,99.99
2018-09-21T10:37:11.131Z,99.99
2018-09-21T10:38:11.114Z,99.99
2018-09-21T10:39:11.390Z,99.99
2018-09-21T10:40:11.216Z,99.99
2018-09-21T10:41:11.340Z,99.99
2018-09-21T10:42:11.162Z,99.99
2018-09-21T10:43:11.270Z,99.99
2018-09-21T10:44:11.124Z,99.99
2018-09-21T10:45:11.122Z,99.99
2018-09-21T10:46:11.325Z,99.99
2018-09-21T10:47:11.125Z,99.99
2018-09-21T10:48:11.137Z,99.99
2018-09-21T10:49:11.130Z,99.99
2018-09-21T10:50:11.148Z,99.99
2018-09-21T10:51:11.143Z,99.99
2018-09-21T10:52:11.363Z,99.99
2018-09-21T10:53:11.145Z,99.99
2018-09-21T10:54:11.138Z,99.99
2018-09-21T10:55:11.166Z,99.99
2018-09-21T10:56:11.354Z,99.99
2018-09-21T10:57:11.164Z,99.99
2018-09-21T10:58:11.356Z,99.99
2018-09-21T10:59:11.165Z,99.99
2018-09-21T11:00:11.146Z,99.99
2018-09-21T11:01:11.146Z,99.99
2018-09-21T11:02:11.149Z,99.99
2018-09-21T11:03:11.164Z,99.99
2018-09-21T11:04:11.158Z,99.99
2018-09-21T11:05:11.165Z,99.99
2018-09-21T11:06:11.180Z,99.99
2018-09-21T11:07:11.195Z,99.99
2018-09-21T11:08:11.364Z,99.99
2018-09-21T11:09:11.167Z,99.99
2018-09-21T11:10:11.174Z,99.99
2018-09-21T11:11:11.166Z,99.99
2018-09-21T11:12:11.165Z,99.99
2018-09-21T11:13:11.237Z,99.99
2018-09-21T11:14:11.171Z,99.99
2018-09-21T11:15:11.183Z,99.99
2018-09-21T11:16:11.186Z,99.99
2018-09-21T11:17:11.174Z,99.99
2018-09-21T11:18:11.188Z,99.99
2018-09-21T11:19:11.192Z,99.99
2018-09-21T11:20:11.413Z,99.99
2018-09-21T11:21:11.196Z,99.99
2018-09-21T11:22:11.213Z,99.99
2018-09-21T11:23:11.186Z,99.99
2018-09-21T11:24:11.199Z,99.99
2018-09-21T11:25:11.210Z,99.99
2018-09-21T11:26:11.219Z,99.99
2018-09-21T11:27:11.207Z,99.99
2018-09-21T11:28:11.217Z,99.99
2018-09-21T11:29:11.213Z,99.99
2018-09-21T11:30:11.208Z,99.99
2018-09-21T11:31:11.416Z,99.99
2018-09-21T11:32:11.214Z,99.99
2018-09-21T11:33:11.480Z,99.99
2018-09-21T11:34:11.220Z,99.99
2018-09-21T11:35:11.220Z,99.99
2018-09-21T11:36:11.260Z,99.99
2018-09-21T11:37:11.229Z,99.99
2018-09-21T11:38:11.226Z,99.99
2018-09-21T11:39:11.217Z,99.99
2018-09-21T11:40:11.231Z,99.99
2018-09-21T11:41:11.221Z,99.99
2018-09-21T11:42:11.224Z,99.99
2018-09-21T11:43:11.254Z,99.99
2018-09-21T11:44:11.239Z,99.99
2018-09-21T11:45:11.231Z,99.99
2018-09-21T11:46:11.456Z,99.99
2018-09-21T11:47:11.296Z,99.99
2018-09-21T11:48:11.238Z,99.99
2018-09-21T11:49:11.239Z,99.99
2018-09-21T11:50:11.253Z,99.99
2018-09-21T11:51:11.243Z,99.99
2018-09-21T11:52:11.242Z,99.99
2018-09-21T11:53:11.447Z,99.99
2018-09-21T11:54:11.466Z,99.99
2018-09-21T11:55:11.461Z,99.99
2018-09-21T11:56:11.454Z,99.99
2018-09-21T11:57:11.274Z,99.99
2018-09-21T11:58:11.468Z,99.99
2018-09-21T11:59:11.256Z,99.99
2018-09-21T12:00:11.261Z,99.99
2018-09-21T12:01:11.257Z,99.99
2018-09-21T12:02:11.263Z,99.99
2018-09-21T12:03:11.467Z,99.99
2018-09-21T12:04:11.265Z,99.99
2018-09-21T12:05:11.286Z,99.99
2018-09-21T12:06:11.290Z,99.99
2018-09-21T12:07:11.271Z,99.99
2018-09-21T12:08:11.274Z,99.99
2018-09-21T12:09:11.286Z,99.99
2018-09-21T12:10:11.277Z,99.99
2018-09-21T12:11:11.292Z,99.99
2018-09-21T12:12:11.313Z,99.99
2018-09-21T12:13:11.499Z,99.99
2018-09-21T12:14:11.282Z,99.99
2018-09-21T12:15:11.284Z,99.99
2018-09-21T12:16:11.651Z,99.99
2018-09-21T12:17:11.302Z,99.99
2018-09-21T12:18:11.301Z,99.99
2018-09-21T12:19:11.289Z,99.99
2018-09-21T12:20:11.286Z,99.99
2018-09-21T12:21:11.291Z,99.99
2018-09-21T12:22:11.554Z,99.99
2018-09-21T12:23:11.294Z,99.99
2018-09-21T12:24:11.308Z,99.99
2018-09-21T12:25:11.305Z,99.99
2018-09-21T12:26:11.513Z,99.99
2018-09-21T12:27:11.308Z,99.99
2018-09-21T12:28:11.517Z,99.99
2018-09-21T12:29:11.504Z,99.99
2018-09-21T12:30:11.344Z,99.99
2018-09-21T12:31:11.301Z,99.99
2018-09-21T12:32:11.303Z,99.99
2018-09-21T12:33:11.303Z,99.99
2018-09-21T12:34:11.304Z,99.99
2018-09-21T12:35:11.304Z,99.99
2018-09-21T12:36:11.327Z,99.99
2018-09-21T12:37:11.309Z,99.99
2018-09-21T12:38:11.318Z,99.99
2018-09-21T12:39:11.546Z,99.99
2018-09-21T12:40:11.311Z,99.99
2018-09-21T12:41:11.315Z,99.99
2018-09-21T12:42:11.523Z,99.99
2018-09-21T12:43:11.311Z,99.99
2018-09-21T12:44:11.321Z,99.99
2018-09-21T12:45:11.315Z,99.99
2018-09-21T12:46:11.314Z,99.99
2018-09-21T12:47:11.327Z,99.99
2018-09-21T12:48:11.330Z,99.99
2018-09-21T12:49:11.314Z,99.99
2018-09-21T12:50:11.376Z,99.99
2018-09-21T12:51:11.327Z,99.99
2018-09-21T12:52:11.320Z,99.99